Terminal Aerodrome Forecast
Issued by NWS

Home | Current Version | Previous Version | Text Only | Print | Product List | Glossary On
Versions: 1 2 3 4 5 6 7 8 9 10 11 12
000
FTUS45 KPIH 032322
TAFSUN
TAF
KSUN 032322Z 0400/0424 21010KT P6SM SCT090 BKN150
      TEMPO 0400/0402 26015G25KT -SHRA BKN090
     FM040400 31011KT P6SM SCT100 BKN200
     FM041800 15009KT P6SM SCT100 BKN250
      AMD LTD TO CLD VIS AND WIND 0405/0413=

USA.gov is the U.S. government's official web portal to all federal, state and local government web resources and services.